sensor_id;sensor_type;location;lat;lon;timestamp;P1;durP1;ratioP1;P2;durP2;ratioP2
45007;SDS011;30743;52.008;5.644;2023-03-14T00:00:48;4.90;;;1.65;;
45007;SDS011;30743;52.008;5.644;2023-03-14T00:03:14;7.72;;;1.90;;
45007;SDS011;30743;52.008;5.644;2023-03-14T00:05:39;9.10;;;2.58;;
45007;SDS011;30743;52.008;5.644;2023-03-14T00:08:05;4.80;;;1.50;;
45007;SDS011;30743;52.008;5.644;2023-03-14T00:10:30;4.00;;;1.40;;
45007;SDS011;30743;52.008;5.644;2023-03-14T00:12:56;6.32;;;2.25;;
45007;SDS011;30743;52.008;5.644;2023-03-14T00:15:21;4.40;;;1.75;;
45007;SDS011;30743;52.008;5.644;2023-03-14T00:17:47;5.55;;;1.65;;
45007;SDS011;30743;52.008;5.644;2023-03-14T00:20:12;5.18;;;1.85;;
45007;SDS011;30743;52.008;5.644;2023-03-14T00:22:38;5.28;;;1.60;;
45007;SDS011;30743;52.008;5.644;2023-03-14T00:25:04;5.03;;;1.80;;
45007;SDS011;30743;52.008;5.644;2023-03-14T00:27:31;7.43;;;2.15;;
45007;SDS011;30743;52.008;5.644;2023-03-14T00:29:57;8.35;;;1.90;;
45007;SDS011;30743;52.008;5.644;2023-03-14T00:32:23;5.72;;;1.65;;
45007;SDS011;30743;52.008;5.644;2023-03-14T00:34:49;6.13;;;2.20;;
45007;SDS011;30743;52.008;5.644;2023-03-14T00:37:15;7.05;;;2.15;;
45007;SDS011;30743;52.008;5.644;2023-03-14T00:39:40;5.53;;;1.83;;
45007;SDS011;30743;52.008;5.644;2023-03-14T00:42:06;7.10;;;1.95;;
45007;SDS011;30743;52.008;5.644;2023-03-14T00:44:31;6.82;;;2.05;;
45007;SDS011;30743;52.008;5.644;2023-03-14T00:46:57;7.45;;;1.55;;
45007;SDS011;30743;52.008;5.644;2023-03-14T00:49:23;7.47;;;2.13;;
45007;SDS011;30743;52.008;5.644;2023-03-14T00:51:49;4.43;;;1.70;;
45007;SDS011;30743;52.008;5.644;2023-03-14T00:54:14;5.00;;;1.45;;
45007;SDS011;30743;52.008;5.644;2023-03-14T00:56:40;4.18;;;1.23;;
45007;SDS011;30743;52.008;5.644;2023-03-14T00:59:05;3.92;;;1.15;;
45007;SDS011;30743;52.008;5.644;2023-03-14T01:01:31;3.40;;;0.90;;
45007;SDS011;30743;52.008;5.644;2023-03-14T01:03:56;8.13;;;2.05;;
45007;SDS011;30743;52.008;5.644;2023-03-14T01:06:23;3.75;;;0.93;;
45007;SDS011;30743;52.008;5.644;2023-03-14T01:08:50;8.73;;;1.02;;
45007;SDS011;30743;52.008;5.644;2023-03-14T01:11:26;4.13;;;1.00;;
45007;SDS011;30743;52.008;5.644;2023-03-14T01:13:55;3.30;;;1.20;;
45007;SDS011;30743;52.008;5.644;2023-03-14T01:16:21;4.05;;;1.00;;
45007;SDS011;30743;52.008;5.644;2023-03-14T01:18:48;6.45;;;1.38;;
45007;SDS011;30743;52.008;5.644;2023-03-14T01:21:33;7.82;;;1.48;;
45007;SDS011;30743;52.008;5.644;2023-03-14T01:24:00;6.40;;;1.30;;
45007;SDS011;30743;52.008;5.644;2023-03-14T01:26:27;5.80;;;1.30;;
45007;SDS011;30743;52.008;5.644;2023-03-14T01:28:55;5.15;;;1.40;;
45007;SDS011;30743;52.008;5.644;2023-03-14T01:31:21;7.53;;;1.08;;
45007;SDS011;30743;52.008;5.644;2023-03-14T01:33:47;5.70;;;1.60;;
45007;SDS011;30743;52.008;5.644;2023-03-14T01:36:12;5.00;;;1.20;;
45007;SDS011;30743;52.008;5.644;2023-03-14T01:38:39;7.35;;;1.25;;
45007;SDS011;30743;52.008;5.644;2023-03-14T01:41:05;5.57;;;1.13;;
45007;SDS011;30743;52.008;5.644;2023-03-14T01:43:32;7.32;;;1.27;;
45007;SDS011;30743;52.008;5.644;2023-03-14T01:48:35;8.40;;;1.30;;
45007;SDS011;30743;52.008;5.644;2023-03-14T01:51:09;5.88;;;1.50;;
45007;SDS011;30743;52.008;5.644;2023-03-14T01:53:42;7.10;;;1.40;;
45007;SDS011;30743;52.008;5.644;2023-03-14T01:56:09;8.10;;;1.20;;
45007;SDS011;30743;52.008;5.644;2023-03-14T01:58:38;6.90;;;1.38;;
45007;SDS011;30743;52.008;5.644;2023-03-14T02:01:06;4.40;;;1.40;;
45007;SDS011;30743;52.008;5.644;2023-03-14T02:03:34;9.68;;;1.90;;
45007;SDS011;30743;52.008;5.644;2023-03-14T02:06:09;5.15;;;1.83;;
45007;SDS011;30743;52.008;5.644;2023-03-14T02:08:36;2.40;;;1.20;;
45007;SDS011;30743;52.008;5.644;2023-03-14T02:11:04;6.35;;;1.70;;
45007;SDS011;30743;52.008;5.644;2023-03-14T02:13:32;7.13;;;2.10;;
45007;SDS011;30743;52.008;5.644;2023-03-14T02:15:57;4.95;;;1.58;;
45007;SDS011;30743;52.008;5.644;2023-03-14T02:18:23;5.68;;;1.67;;
45007;SDS011;30743;52.008;5.644;2023-03-14T02:21:07;6.88;;;1.90;;
45007;SDS011;30743;52.008;5.644;2023-03-14T02:29:34;5.07;;;2.08;;
45007;SDS011;30743;52.008;5.644;2023-03-14T02:32:04;6.53;;;2.40;;
45007;SDS011;30743;52.008;5.644;2023-03-14T02:34:31;5.55;;;2.17;;
45007;SDS011;30743;52.008;5.644;2023-03-14T02:36:56;7.63;;;2.35;;
45007;SDS011;30743;52.008;5.644;2023-03-14T02:39:28;7.22;;;2.38;;
45007;SDS011;30743;52.008;5.644;2023-03-14T02:41:59;6.00;;;1.85;;
45007;SDS011;30743;52.008;5.644;2023-03-14T02:44:25;6.20;;;2.33;;
45007;SDS011;30743;52.008;5.644;2023-03-14T02:46:51;5.75;;;3.15;;
45007;SDS011;30743;52.008;5.644;2023-03-14T02:49:16;8.48;;;2.42;;
45007;SDS011;30743;52.008;5.644;2023-03-14T02:51:43;6.78;;;1.95;;
45007;SDS011;30743;52.008;5.644;2023-03-14T02:54:10;7.20;;;2.13;;
45007;SDS011;30743;52.008;5.644;2023-03-14T02:56:37;6.18;;;2.38;;
45007;SDS011;30743;52.008;5.644;2023-03-14T02:59:03;7.95;;;2.28;;
45007;SDS011;30743;52.008;5.644;2023-03-14T03:01:29;6.32;;;2.40;;
45007;SDS011;30743;52.008;5.644;2023-03-14T03:03:55;10.18;;;2.00;;
45007;SDS011;30743;52.008;5.644;2023-03-14T03:06:21;6.18;;;2.55;;
45007;SDS011;30743;52.008;5.644;2023-03-14T03:08:46;6.85;;;1.67;;
45007;SDS011;30743;52.008;5.644;2023-03-14T03:11:12;7.28;;;1.73;;
45007;SDS011;30743;52.008;5.644;2023-03-14T03:13:37;4.63;;;1.88;;
45007;SDS011;30743;52.008;5.644;2023-03-14T03:16:03;8.48;;;1.80;;
45007;SDS011;30743;52.008;5.644;2023-03-14T03:18:29;4.85;;;1.02;;
45007;SDS011;30743;52.008;5.644;2023-03-14T03:20:55;3.60;;;1.23;;
45007;SDS011;30743;52.008;5.644;2023-03-14T03:23:25;7.15;;;1.45;;
45007;SDS011;30743;52.008;5.644;2023-03-14T03:25:51;5.43;;;1.50;;
45007;SDS011;30743;52.008;5.644;2023-03-14T03:28:17;7.00;;;1.30;;
45007;SDS011;30743;52.008;5.644;2023-03-14T03:30:43;4.53;;;1.30;;
45007;SDS011;30743;52.008;5.644;2023-03-14T03:33:09;5.50;;;1.33;;
45007;SDS011;30743;52.008;5.644;2023-03-14T03:35:41;7.82;;;1.70;;
45007;SDS011;30743;52.008;5.644;2023-03-14T03:38:07;5.90;;;1.60;;
45007;SDS011;30743;52.008;5.644;2023-03-14T03:40:33;4.68;;;1.63;;
45007;SDS011;30743;52.008;5.644;2023-03-14T03:42:58;4.07;;;1.35;;
45007;SDS011;30743;52.008;5.644;2023-03-14T03:45:24;8.07;;;1.70;;
45007;SDS011;30743;52.008;5.644;2023-03-14T03:47:49;6.47;;;1.73;;
45007;SDS011;30743;52.008;5.644;2023-03-14T03:50:15;3.97;;;1.45;;
45007;SDS011;30743;52.008;5.644;2023-03-14T03:52:41;5.82;;;1.30;;
45007;SDS011;30743;52.008;5.644;2023-03-14T03:55:06;6.07;;;1.45;;
45007;SDS011;30743;52.008;5.644;2023-03-14T03:57:32;4.95;;;1.30;;
45007;SDS011;30743;52.008;5.644;2023-03-14T03:59:58;8.27;;;2.00;;
45007;SDS011;30743;52.008;5.644;2023-03-14T04:02:23;7.65;;;2.28;;
45007;SDS011;30743;52.008;5.644;2023-03-14T04:04:49;6.68;;;2.10;;
45007;SDS011;30743;52.008;5.644;2023-03-14T04:07:14;6.40;;;1.70;;
45007;SDS011;30743;52.008;5.644;2023-03-14T04:09:40;7.10;;;2.25;;
45007;SDS011;30743;52.008;5.644;2023-03-14T04:12:05;7.57;;;1.60;;
45007;SDS011;30743;52.008;5.644;2023-03-14T04:14:31;6.63;;;2.13;;
45007;SDS011;30743;52.008;5.644;2023-03-14T04:16:56;8.68;;;1.70;;
45007;SDS011;30743;52.008;5.644;2023-03-14T04:19:22;7.57;;;2.08;;
45007;SDS011;30743;52.008;5.644;2023-03-14T04:21:47;6.45;;;1.83;;
45007;SDS011;30743;52.008;5.644;2023-03-14T04:24:13;5.05;;;1.75;;
45007;SDS011;30743;52.008;5.644;2023-03-14T04:26:39;7.93;;;1.50;;
45007;SDS011;30743;52.008;5.644;2023-03-14T04:29:05;5.57;;;1.75;;
45007;SDS011;30743;52.008;5.644;2023-03-14T04:31:30;7.53;;;1.70;;
45007;SDS011;30743;52.008;5.644;2023-03-14T04:33:56;7.05;;;2.15;;
45007;SDS011;30743;52.008;5.644;2023-03-14T04:36:21;5.13;;;1.50;;
45007;SDS011;30743;52.008;5.644;2023-03-14T04:38:47;5.57;;;1.58;;
45007;SDS011;30743;52.008;5.644;2023-03-14T04:41:12;5.95;;;1.40;;
45007;SDS011;30743;52.008;5.644;2023-03-14T04:43:38;9.20;;;2.40;;
45007;SDS011;30743;52.008;5.644;2023-03-14T04:46:03;6.93;;;1.70;;
45007;SDS011;30743;52.008;5.644;2023-03-14T04:48:29;7.28;;;1.40;;
45007;SDS011;30743;52.008;5.644;2023-03-14T04:50:55;3.58;;;1.38;;
45007;SDS011;30743;52.008;5.644;2023-03-14T04:53:20;7.75;;;1.95;;
45007;SDS011;30743;52.008;5.644;2023-03-14T04:55:53;6.20;;;1.30;;
45007;SDS011;30743;52.008;5.644;2023-03-14T04:58:20;6.68;;;2.30;;
45007;SDS011;30743;52.008;5.644;2023-03-14T05:00:46;6.72;;;1.15;;
45007;SDS011;30743;52.008;5.644;2023-03-14T05:03:14;3.90;;;1.10;;
45007;SDS011;30743;52.008;5.644;2023-03-14T05:05:40;3.75;;;1.85;;
45007;SDS011;30743;52.008;5.644;2023-03-14T05:08:05;3.63;;;1.00;;
45007;SDS011;30743;52.008;5.644;2023-03-14T05:10:31;3.92;;;1.08;;
45007;SDS011;30743;52.008;5.644;2023-03-14T05:12:57;5.88;;;1.17;;
45007;SDS011;30743;52.008;5.644;2023-03-14T05:15:22;3.95;;;1.10;;
45007;SDS011;30743;52.008;5.644;2023-03-14T05:17:48;4.05;;;1.27;;
45007;SDS011;30743;52.008;5.644;2023-03-14T05:20:14;3.08;;;1.20;;
45007;SDS011;30743;52.008;5.644;2023-03-14T05:22:40;4.45;;;1.45;;
45007;SDS011;30743;52.008;5.644;2023-03-14T05:25:06;3.78;;;1.20;;
45007;SDS011;30743;52.008;5.644;2023-03-14T05:27:33;5.20;;;1.33;;
45007;SDS011;30743;52.008;5.644;2023-03-14T05:29:59;4.30;;;1.25;;
45007;SDS011;30743;52.008;5.644;2023-03-14T05:32:25;5.05;;;1.25;;
45007;SDS011;30743;52.008;5.644;2023-03-14T05:34:50;3.88;;;1.55;;
45007;SDS011;30743;52.008;5.644;2023-03-14T05:37:16;5.90;;;1.30;;
45007;SDS011;30743;52.008;5.644;2023-03-14T05:39:41;2.83;;;1.10;;
45007;SDS011;30743;52.008;5.644;2023-03-14T05:42:07;7.05;;;1.75;;
45007;SDS011;30743;52.008;5.644;2023-03-14T05:44:32;5.25;;;1.15;;
45007;SDS011;30743;52.008;5.644;2023-03-14T05:46:58;4.93;;;1.60;;
45007;SDS011;30743;52.008;5.644;2023-03-14T05:49:23;4.28;;;1.45;;
45007;SDS011;30743;52.008;5.644;2023-03-14T05:51:50;6.05;;;1.50;;
45007;SDS011;30743;52.008;5.644;2023-03-14T05:54:16;3.63;;;1.48;;
45007;SDS011;30743;52.008;5.644;2023-03-14T05:56:41;4.93;;;1.70;;
45007;SDS011;30743;52.008;5.644;2023-03-14T05:59:07;4.15;;;1.52;;
45007;SDS011;30743;52.008;5.644;2023-03-14T06:01:34;5.38;;;1.65;;
45007;SDS011;30743;52.008;5.644;2023-03-14T06:03:59;6.13;;;1.73;;
45007;SDS011;30743;52.008;5.644;2023-03-14T06:06:25;4.72;;;1.58;;
45007;SDS011;30743;52.008;5.644;2023-03-14T06:08:50;2.38;;;1.67;;
45007;SDS011;30743;52.008;5.644;2023-03-14T06:11:16;5.78;;;1.63;;
45007;SDS011;30743;52.008;5.644;2023-03-14T06:13:42;3.45;;;1.60;;
45007;SDS011;30743;52.008;5.644;2023-03-14T06:16:07;4.50;;;2.13;;
45007;SDS011;30743;52.008;5.644;2023-03-14T06:18:33;5.85;;;2.00;;
45007;SDS011;30743;52.008;5.644;2023-03-14T06:20:59;3.65;;;1.83;;
45007;SDS011;30743;52.008;5.644;2023-03-14T06:23:24;4.43;;;2.15;;
45007;SDS011;30743;52.008;5.644;2023-03-14T06:25:50;5.95;;;2.13;;
45007;SDS011;30743;52.008;5.644;2023-03-14T06:28:15;5.95;;;2.40;;
45007;SDS011;30743;52.008;5.644;2023-03-14T06:30:41;3.80;;;2.15;;
45007;SDS011;30743;52.008;5.644;2023-03-14T06:33:07;6.57;;;2.63;;
45007;SDS011;30743;52.008;5.644;2023-03-14T06:35:32;7.50;;;2.92;;
45007;SDS011;30743;52.008;5.644;2023-03-14T06:37:58;5.28;;;2.70;;
45007;SDS011;30743;52.008;5.644;2023-03-14T06:40:24;5.28;;;2.90;;
45007;SDS011;30743;52.008;5.644;2023-03-14T06:42:49;9.77;;;3.72;;
45007;SDS011;30743;52.008;5.644;2023-03-14T06:45:15;5.30;;;3.15;;
45007;SDS011;30743;52.008;5.644;2023-03-14T06:47:41;5.28;;;3.30;;
45007;SDS011;30743;52.008;5.644;2023-03-14T06:50:07;6.47;;;3.60;;
45007;SDS011;30743;52.008;5.644;2023-03-14T06:52:33;6.38;;;3.42;;
45007;SDS011;30743;52.008;5.644;2023-03-14T06:54:59;7.00;;;3.60;;
45007;SDS011;30743;52.008;5.644;2023-03-14T06:57:24;4.50;;;3.33;;
45007;SDS011;30743;52.008;5.644;2023-03-14T06:59:50;6.05;;;3.50;;
45007;SDS011;30743;52.008;5.644;2023-03-14T07:02:16;7.60;;;4.00;;
45007;SDS011;30743;52.008;5.644;2023-03-14T07:04:41;7.15;;;3.75;;
45007;SDS011;30743;52.008;5.644;2023-03-14T07:07:07;5.53;;;3.42;;
45007;SDS011;30743;52.008;5.644;2023-03-14T07:09:33;2.75;;;1.70;;
45007;SDS011;30743;52.008;5.644;2023-03-14T07:12:00;3.60;;;1.40;;
45007;SDS011;30743;52.008;5.644;2023-03-14T07:14:25;2.05;;;0.93;;
45007;SDS011;30743;52.008;5.644;2023-03-14T07:16:51;1.50;;;0.70;;
45007;SDS011;30743;52.008;5.644;2023-03-14T07:19:17;1.90;;;0.85;;
45007;SDS011;30743;52.008;5.644;2023-03-14T07:21:42;2.90;;;0.70;;
45007;SDS011;30743;52.008;5.644;2023-03-14T07:24:08;0.50;;;0.30;;
45007;SDS011;30743;52.008;5.644;2023-03-14T07:26:33;1.27;;;0.30;;
45007;SDS011;30743;52.008;5.644;2023-03-14T07:28:59;0.50;;;0.40;;
45007;SDS011;30743;52.008;5.644;2023-03-14T07:31:24;0.68;;;0.40;;
45007;SDS011;30743;52.008;5.644;2023-03-14T07:33:50;1.48;;;0.50;;
45007;SDS011;30743;52.008;5.644;2023-03-14T07:36:16;1.13;;;0.40;;
45007;SDS011;30743;52.008;5.644;2023-03-14T07:38:41;0.90;;;0.43;;
45007;SDS011;30743;52.008;5.644;2023-03-14T07:41:07;1.63;;;0.60;;
45007;SDS011;30743;52.008;5.644;2023-03-14T07:43:33;2.47;;;0.40;;
45007;SDS011;30743;52.008;5.644;2023-03-14T07:45:59;1.30;;;0.55;;
45007;SDS011;30743;52.008;5.644;2023-03-14T07:48:25;1.45;;;0.45;;
45007;SDS011;30743;52.008;5.644;2023-03-14T07:50:51;3.00;;;1.00;;
45007;SDS011;30743;52.008;5.644;2023-03-14T07:53:18;1.17;;;0.55;;
45007;SDS011;30743;52.008;5.644;2023-03-14T07:55:44;2.25;;;0.70;;
45007;SDS011;30743;52.008;5.644;2023-03-14T07:58:10;1.30;;;0.60;;
45007;SDS011;30743;52.008;5.644;2023-03-14T08:00:36;1.02;;;0.70;;
45007;SDS011;30743;52.008;5.644;2023-03-14T08:03:01;2.15;;;0.70;;
45007;SDS011;30743;52.008;5.644;2023-03-14T08:05:27;0.52;;;0.50;;
45007;SDS011;30743;52.008;5.644;2023-03-14T08:07:53;1.30;;;0.68;;
45007;SDS011;30743;52.008;5.644;2023-03-14T08:10:18;1.55;;;0.60;;
45007;SDS011;30743;52.008;5.644;2023-03-14T08:12:50;2.35;;;0.80;;
45007;SDS011;30743;52.008;5.644;2023-03-14T08:15:18;1.33;;;0.80;;
45007;SDS011;30743;52.008;5.644;2023-03-14T08:17:44;1.45;;;0.68;;
45007;SDS011;30743;52.008;5.644;2023-03-14T08:20:10;2.92;;;0.80;;
45007;SDS011;30743;52.008;5.644;2023-03-14T08:22:37;2.15;;;0.82;;
45007;SDS011;30743;52.008;5.644;2023-03-14T08:25:03;0.52;;;0.40;;
45007;SDS011;30743;52.008;5.644;2023-03-14T08:27:29;1.92;;;0.95;;
45007;SDS011;30743;52.008;5.644;2023-03-14T08:29:55;1.33;;;0.73;;
45007;SDS011;30743;52.008;5.644;2023-03-14T08:32:20;3.40;;;0.85;;
45007;SDS011;30743;52.008;5.644;2023-03-14T08:34:48;1.92;;;0.68;;
45007;SDS011;30743;52.008;5.644;2023-03-14T08:37:13;3.03;;;0.90;;
45007;SDS011;30743;52.008;5.644;2023-03-14T08:39:39;3.60;;;0.80;;
45007;SDS011;30743;52.008;5.644;2023-03-14T08:42:04;2.53;;;0.80;;
45007;SDS011;30743;52.008;5.644;2023-03-14T08:44:30;1.48;;;0.50;;
45007;SDS011;30743;52.008;5.644;2023-03-14T08:46:55;4.05;;;0.80;;
45007;SDS011;30743;52.008;5.644;2023-03-14T08:49:22;2.05;;;0.55;;
45007;SDS011;30743;52.008;5.644;2023-03-14T08:51:47;1.65;;;0.60;;
45007;SDS011;30743;52.008;5.644;2023-03-14T08:54:13;4.20;;;0.60;;
45007;SDS011;30743;52.008;5.644;2023-03-14T08:56:38;5.50;;;2.38;;
45007;SDS011;30743;52.008;5.644;2023-03-14T08:59:04;4.90;;;0.80;;
45007;SDS011;30743;52.008;5.644;2023-03-14T09:01:30;2.88;;;0.68;;
45007;SDS011;30743;52.008;5.644;2023-03-14T09:03:55;5.45;;;0.65;;
45007;SDS011;30743;52.008;5.644;2023-03-14T09:06:21;2.05;;;0.70;;
45007;SDS011;30743;52.008;5.644;2023-03-14T09:08:46;4.00;;;0.90;;
45007;SDS011;30743;52.008;5.644;2023-03-14T09:11:12;4.50;;;0.75;;
45007;SDS011;30743;52.008;5.644;2023-03-14T09:13:38;2.38;;;0.85;;
45007;SDS011;30743;52.008;5.644;2023-03-14T09:16:04;1.13;;;0.30;;
45007;SDS011;30743;52.008;5.644;2023-03-14T09:18:30;1.20;;;0.22;;
45007;SDS011;30743;52.008;5.644;2023-03-14T09:20:55;1.08;;;0.30;;
45007;SDS011;30743;52.008;5.644;2023-03-14T09:23:21;3.60;;;0.68;;
45007;SDS011;30743;52.008;5.644;2023-03-14T09:25:47;2.30;;;0.30;;
45007;SDS011;30743;52.008;5.644;2023-03-14T09:28:12;1.08;;;0.30;;
45007;SDS011;30743;52.008;5.644;2023-03-14T09:30:38;1.17;;;0.38;;
45007;SDS011;30743;52.008;5.644;2023-03-14T09:33:04;3.03;;;0.70;;
45007;SDS011;30743;52.008;5.644;2023-03-14T09:35:29;1.42;;;0.60;;
45007;SDS011;30743;52.008;5.644;2023-03-14T09:37:55;4.38;;;0.70;;
45007;SDS011;30743;52.008;5.644;2023-03-14T09:40:20;4.65;;;0.70;;
45007;SDS011;30743;52.008;5.644;2023-03-14T09:42:50;4.60;;;0.85;;
45007;SDS011;30743;52.008;5.644;2023-03-14T09:45:26;4.63;;;0.73;;
45007;SDS011;30743;52.008;5.644;2023-03-14T09:47:54;4.95;;;1.27;;
45007;SDS011;30743;52.008;5.644;2023-03-14T09:50:21;7.05;;;0.95;;
45007;SDS011;30743;52.008;5.644;2023-03-14T09:52:51;3.40;;;0.88;;
45007;SDS011;30743;52.008;5.644;2023-03-14T09:55:24;6.35;;;1.10;;
45007;SDS011;30743;52.008;5.644;2023-03-14T09:57:49;2.72;;;0.70;;
45007;SDS011;30743;52.008;5.644;2023-03-14T10:00:20;6.30;;;1.13;;
45007;SDS011;30743;52.008;5.644;2023-03-14T10:02:52;7.30;;;1.42;;
45007;SDS011;30743;52.008;5.644;2023-03-14T10:05:21;10.73;;;1.30;;
45007;SDS011;30743;52.008;5.644;2023-03-14T10:07:48;10.80;;;1.45;;
45007;SDS011;30743;52.008;5.644;2023-03-14T10:10:15;8.90;;;1.52;;
45007;SDS011;30743;52.008;5.644;2023-03-14T10:12:44;5.65;;;1.48;;
45007;SDS011;30743;52.008;5.644;2023-03-14T10:15:13;9.20;;;1.38;;
45007;SDS011;30743;52.008;5.644;2023-03-14T10:17:43;9.85;;;2.22;;
45007;SDS011;30743;52.008;5.644;2023-03-14T10:20:30;6.32;;;1.30;;
45007;SDS011;30743;52.008;5.644;2023-03-14T10:25:33;10.50;;;2.50;;
45007;SDS011;30743;52.008;5.644;2023-03-14T10:28:00;11.02;;;2.63;;
45007;SDS011;30743;52.008;5.644;2023-03-14T10:33:20;10.82;;;1.90;;
45007;SDS011;30743;52.008;5.644;2023-03-14T10:36:03;7.50;;;1.38;;
45007;SDS011;30743;52.008;5.644;2023-03-14T10:38:31;9.48;;;1.45;;
45007;SDS011;30743;52.008;5.644;2023-03-14T10:40:59;11.60;;;2.47;;
45007;SDS011;30743;52.008;5.644;2023-03-14T10:43:26;10.20;;;1.73;;
45007;SDS011;30743;52.008;5.644;2023-03-14T10:45:57;10.77;;;1.50;;
45007;SDS011;30743;52.008;5.644;2023-03-14T10:48:43;11.80;;;2.03;;
45007;SDS011;30743;52.008;5.644;2023-03-14T10:53:47;9.68;;;1.70;;
45007;SDS011;30743;52.008;5.644;2023-03-14T10:56:19;10.52;;;1.77;;
45007;SDS011;30743;52.008;5.644;2023-03-14T10:58:47;7.57;;;1.65;;
45007;SDS011;30743;52.008;5.644;2023-03-14T11:03:57;8.13;;;2.08;;
45007;SDS011;30743;52.008;5.644;2023-03-14T11:06:36;15.18;;;3.65;;
45007;SDS011;30743;52.008;5.644;2023-03-14T11:09:25;12.20;;;2.20;;
45007;SDS011;30743;52.008;5.644;2023-03-14T11:12:03;8.98;;;2.13;;
45007;SDS011;30743;52.008;5.644;2023-03-14T11:15:12;9.30;;;1.60;;
45007;SDS011;30743;52.008;5.644;2023-03-14T11:25:41;7.32;;;1.30;;
45007;SDS011;30743;52.008;5.644;2023-03-14T11:28:17;9.48;;;2.47;;
45007;SDS011;30743;52.008;5.644;2023-03-14T11:30:53;10.60;;;3.25;;
45007;SDS011;30743;52.008;5.644;2023-03-14T11:33:34;11.57;;;2.10;;
45007;SDS011;30743;52.008;5.644;2023-03-14T11:36:07;11.52;;;2.40;;
45007;SDS011;30743;52.008;5.644;2023-03-14T11:38:46;19.08;;;3.03;;
45007;SDS011;30743;52.008;5.644;2023-03-14T11:41:14;16.50;;;2.30;;
45007;SDS011;30743;52.008;5.644;2023-03-14T11:46:29;6.78;;;2.05;;
45007;SDS011;30743;52.008;5.644;2023-03-14T11:51:41;8.95;;;1.95;;
45007;SDS011;30743;52.008;5.644;2023-03-14T11:56:47;10.95;;;1.88;;
45007;SDS011;30743;52.008;5.644;2023-03-14T11:59:25;9.88;;;1.38;;
45007;SDS011;30743;52.008;5.644;2023-03-14T12:01:57;7.78;;;1.60;;
45007;SDS011;30743;52.008;5.644;2023-03-14T12:10:09;7.57;;;1.23;;
45007;SDS011;30743;52.008;5.644;2023-03-14T12:12:35;6.95;;;1.33;;
45007;SDS011;30743;52.008;5.644;2023-03-14T12:15:01;11.93;;;1.40;;
45007;SDS011;30743;52.008;5.644;2023-03-14T12:17:35;8.38;;;1.20;;
45007;SDS011;30743;52.008;5.644;2023-03-14T12:20:24;9.00;;;1.73;;
45007;SDS011;30743;52.008;5.644;2023-03-14T12:22:54;5.85;;;1.15;;
45007;SDS011;30743;52.008;5.644;2023-03-14T12:25:28;6.97;;;1.35;;
45007;SDS011;30743;52.008;5.644;2023-03-14T12:35:46;4.38;;;1.20;;
45007;SDS011;30743;52.008;5.644;2023-03-14T12:38:17;5.35;;;1.20;;
45007;SDS011;30743;52.008;5.644;2023-03-14T12:41:11;4.35;;;1.13;;
45007;SDS011;30743;52.008;5.644;2023-03-14T12:43:54;6.35;;;1.10;;
45007;SDS011;30743;52.008;5.644;2023-03-14T12:48:55;3.67;;;1.00;;
45007;SDS011;30743;52.008;5.644;2023-03-14T12:51:35;5.15;;;1.15;;
45007;SDS011;30743;52.008;5.644;2023-03-14T12:54:18;6.63;;;1.15;;
45007;SDS011;30743;52.008;5.644;2023-03-14T12:57:00;7.38;;;1.42;;
45007;SDS011;30743;52.008;5.644;2023-03-14T12:59:50;6.45;;;1.10;;
45007;SDS011;30743;52.008;5.644;2023-03-14T13:02:27;8.43;;;1.33;;
45007;SDS011;30743;52.008;5.644;2023-03-14T13:05:05;7.53;;;1.30;;
45007;SDS011;30743;52.008;5.644;2023-03-14T13:08:01;4.65;;;1.00;;
45007;SDS011;30743;52.008;5.644;2023-03-14T13:15:46;6.55;;;1.42;;
45007;SDS011;30743;52.008;5.644;2023-03-14T13:18:14;4.40;;;1.10;;
45007;SDS011;30743;52.008;5.644;2023-03-14T13:20:53;6.55;;;1.15;;
45007;SDS011;30743;52.008;5.644;2023-03-14T13:23:22;5.57;;;1.40;;
45007;SDS011;30743;52.008;5.644;2023-03-14T13:25:56;4.22;;;1.55;;
45007;SDS011;30743;52.008;5.644;2023-03-14T13:28:21;4.93;;;1.05;;
45007;SDS011;30743;52.008;5.644;2023-03-14T13:30:48;3.83;;;1.25;;
45007;SDS011;30743;52.008;5.644;2023-03-14T13:33:23;5.57;;;0.90;;
45007;SDS011;30743;52.008;5.644;2023-03-14T13:35:54;4.45;;;1.08;;
45007;SDS011;30743;52.008;5.644;2023-03-14T13:38:26;4.78;;;0.90;;
45007;SDS011;30743;52.008;5.644;2023-03-14T13:43:25;3.63;;;0.85;;
45007;SDS011;30743;52.008;5.644;2023-03-14T13:45:56;2.97;;;0.73;;
45007;SDS011;30743;52.008;5.644;2023-03-14T13:48:26;7.80;;;0.98;;
45007;SDS011;30743;52.008;5.644;2023-03-14T13:51:01;3.40;;;0.80;;
45007;SDS011;30743;52.008;5.644;2023-03-14T13:53:29;3.70;;;1.00;;
45007;SDS011;30743;52.008;5.644;2023-03-14T13:55:55;5.20;;;1.05;;
45007;SDS011;30743;52.008;5.644;2023-03-14T13:58:22;2.88;;;0.85;;
45007;SDS011;30743;52.008;5.644;2023-03-14T14:00:54;4.50;;;1.17;;
45007;SDS011;30743;52.008;5.644;2023-03-14T14:03:22;4.32;;;1.00;;
45007;SDS011;30743;52.008;5.644;2023-03-14T14:05:47;5.18;;;0.70;;
45007;SDS011;30743;52.008;5.644;2023-03-14T14:08:13;4.20;;;0.90;;
45007;SDS011;30743;52.008;5.644;2023-03-14T14:10:38;5.55;;;1.17;;
45007;SDS011;30743;52.008;5.644;2023-03-14T14:13:05;5.00;;;1.30;;
45007;SDS011;30743;52.008;5.644;2023-03-14T14:15:37;5.75;;;1.30;;
45007;SDS011;30743;52.008;5.644;2023-03-14T14:18:08;3.95;;;0.80;;
45007;SDS011;30743;52.008;5.644;2023-03-14T14:20:38;7.43;;;1.40;;
45007;SDS011;30743;52.008;5.644;2023-03-14T14:23:16;3.10;;;0.70;;
45007;SDS011;30743;52.008;5.644;2023-03-14T14:25:54;1.88;;;0.68;;
45007;SDS011;30743;52.008;5.644;2023-03-14T14:28:23;3.03;;;1.05;;
45007;SDS011;30743;52.008;5.644;2023-03-14T14:33:39;5.72;;;1.27;;
45007;SDS011;30743;52.008;5.644;2023-03-14T14:36:15;3.88;;;0.80;;
45007;SDS011;30743;52.008;5.644;2023-03-14T14:38:54;4.50;;;1.00;;
45007;SDS011;30743;52.008;5.644;2023-03-14T14:41:22;7.35;;;1.20;;
45007;SDS011;30743;52.008;5.644;2023-03-14T14:43:52;6.70;;;1.10;;
45007;SDS011;30743;52.008;5.644;2023-03-14T14:46:18;3.08;;;1.02;;
45007;SDS011;30743;52.008;5.644;2023-03-14T14:48:44;8.30;;;1.67;;
45007;SDS011;30743;52.008;5.644;2023-03-14T14:51:21;3.63;;;0.93;;
45007;SDS011;30743;52.008;5.644;2023-03-14T14:53:59;5.22;;;1.23;;
45007;SDS011;30743;52.008;5.644;2023-03-14T14:56:29;4.80;;;0.90;;
45007;SDS011;30743;52.008;5.644;2023-03-14T14:58:58;7.07;;;0.90;;
45007;SDS011;30743;52.008;5.644;2023-03-14T15:01:30;8.57;;;1.42;;
45007;SDS011;30743;52.008;5.644;2023-03-14T15:04:00;4.03;;;0.80;;
45007;SDS011;30743;52.008;5.644;2023-03-14T15:06:28;4.63;;;1.17;;
45007;SDS011;30743;52.008;5.644;2023-03-14T15:08:54;6.05;;;0.88;;
45007;SDS011;30743;52.008;5.644;2023-03-14T15:11:24;5.60;;;1.02;;
45007;SDS011;30743;52.008;5.644;2023-03-14T15:13:51;7.30;;;0.93;;
45007;SDS011;30743;52.008;5.644;2023-03-14T15:16:18;3.47;;;0.95;;
45007;SDS011;30743;52.008;5.644;2023-03-14T15:18:47;4.40;;;1.00;;
45007;SDS011;30743;52.008;5.644;2023-03-14T15:21:18;4.32;;;1.15;;
45007;SDS011;30743;52.008;5.644;2023-03-14T15:23:43;4.93;;;1.00;;
45007;SDS011;30743;52.008;5.644;2023-03-14T15:26:13;2.33;;;0.47;;
45007;SDS011;30743;52.008;5.644;2023-03-14T15:28:42;7.25;;;1.15;;
45007;SDS011;30743;52.008;5.644;2023-03-14T15:31:08;4.63;;;1.00;;
45007;SDS011;30743;52.008;5.644;2023-03-14T15:33:35;8.93;;;1.02;;
45007;SDS011;30743;52.008;5.644;2023-03-14T15:36:01;3.17;;;1.00;;
45007;SDS011;30743;52.008;5.644;2023-03-14T15:38:28;7.20;;;0.90;;
45007;SDS011;30743;52.008;5.644;2023-03-14T15:40:53;4.10;;;0.82;;
45007;SDS011;30743;52.008;5.644;2023-03-14T15:43:19;2.50;;;0.70;;
45007;SDS011;30743;52.008;5.644;2023-03-14T15:45:45;4.70;;;0.90;;
45007;SDS011;30743;52.008;5.644;2023-03-14T15:48:14;2.25;;;0.80;;
45007;SDS011;30743;52.008;5.644;2023-03-14T15:50:41;3.50;;;0.88;;
45007;SDS011;30743;52.008;5.644;2023-03-14T15:53:07;8.68;;;1.05;;
45007;SDS011;30743;52.008;5.644;2023-03-14T15:55:33;5.65;;;1.10;;